createdAt,value
2023-01-13T00:00:36.669Z,97734.44
2023-01-13T00:03:05.165Z,97742.06
2023-01-13T00:05:33.384Z,97747.22
2023-01-13T00:08:01.611Z,97734.16
2023-01-13T00:10:29.846Z,97735.13
2023-01-13T00:12:59.461Z,97735.13
2023-01-13T00:15:27.667Z,97734.38
2023-01-13T00:17:56.102Z,97731.91
2023-01-13T00:20:24.529Z,97730.31
2023-01-13T00:22:52.748Z,97717.19
2023-01-13T00:25:20.942Z,97724.94
2023-01-13T00:27:49.150Z,97727.66
2023-01-13T00:30:19.076Z,97729.53
2023-01-13T00:32:47.305Z,97728.59
2023-01-13T00:35:15.484Z,97727.66
2023-01-13T00:37:43.644Z,97722.53
2023-01-13T00:40:13.258Z,97719.78
2023-01-13T00:42:58.660Z,97717.13
2023-01-13T00:45:28.287Z,97717.91
2023-01-13T00:47:56.501Z,97712.75
2023-01-13T00:50:24.692Z,97715.28
2023-01-13T00:52:52.897Z,97709.28
2023-01-13T00:55:21.243Z,97707.38
2023-01-13T00:57:49.479Z,97704.75
2023-01-13T01:00:18.421Z,97699.63
2023-01-13T01:02:48.277Z,97704.75
2023-01-13T01:05:16.548Z,97699.53
2023-01-13T01:07:44.737Z,97706.53
2023-01-13T01:10:13.044Z,97715.28
2023-01-13T01:12:41.323Z,97712.84
2023-01-13T01:15:10.911Z,97709.25
2023-01-13T01:17:39.177Z,97712.56
2023-01-13T01:20:10.431Z,97710.16
2023-01-13T01:22:38.637Z,97715.41
2023-01-13T01:25:07.615Z,97708.47
2023-01-13T01:27:35.945Z,97717.28
2023-01-13T01:30:04.248Z,97719.13
2023-01-13T01:32:34.727Z,97724.28
2023-01-13T01:35:02.932Z,97715.41
2023-01-13T01:37:32.566Z,97718.84
2023-01-13T01:40:00.786Z,97707.59
2023-01-13T01:42:46.716Z,97696.25
2023-01-13T01:45:19.113Z,97691.09
2023-01-13T01:47:51.158Z,97685.78
2023-01-13T01:50:20.993Z,97685.78
2023-01-13T01:52:55.189Z,97692.03
2023-01-13T01:55:26.934Z,97691.91
2023-01-13T01:57:58.782Z,97685.91
2023-01-13T02:00:29.263Z,97681.53
2023-01-13T02:02:58.665Z,97668.53
2023-01-13T02:05:26.971Z,97676.47
2023-01-13T02:07:59.034Z,97674.66
2023-01-13T02:10:29.887Z,97663.41
2023-01-13T02:13:01.703Z,97665.84
2023-01-13T02:15:36.714Z,97669.44
2023-01-13T02:18:20.596Z,97650.47
2023-01-13T02:21:17.458Z,97656.47
2023-01-13T02:24:33.348Z,97658.19
2023-01-13T02:27:35.620Z,97652.97
2023-01-13T02:30:35.850Z,97638.97
2023-01-13T02:33:23.479Z,97642.34
2023-01-13T02:35:58.207Z,97640.56
2023-01-13T02:38:31.471Z,97639.63
2023-01-13T02:41:23.375Z,97627.44
2023-01-13T02:44:16.302Z,97622.00
2023-01-13T02:46:55.009Z,97616.44
2023-01-13T02:49:32.613Z,97616.78
2023-01-13T02:52:07.373Z,97608.91
2023-01-13T02:54:39.129Z,97608.91
2023-01-13T02:57:10.648Z,97612.44
2023-01-13T02:59:41.266Z,97621.03
2023-01-13T03:02:15.226Z,97615.72
2023-01-13T03:04:55.851Z,97624.59
2023-01-13T03:07:57.100Z,97609.59
2023-01-13T03:10:47.598Z,97601.63
2023-01-13T03:13:51.868Z,97598.75
2023-01-13T03:16:31.146Z,97591.78
2023-01-13T03:19:14.854Z,97599.41
2023-01-13T03:21:51.869Z,97596.84
2023-01-13T03:24:27.534Z,97595.81
2023-01-13T03:27:02.999Z,97582.09
2023-01-13T03:29:36.932Z,97586.47
2023-01-13T03:32:12.427Z,97603.88
2023-01-13T03:34:47.884Z,97611.66
2023-01-13T03:37:20.393Z,97617.72
2023-01-13T03:39:54.164Z,97617.94
2023-01-13T03:42:25.221Z,97611.66
2023-01-13T03:44:57.821Z,97609.03
2023-01-13T03:47:32.605Z,97600.19
2023-01-13T03:50:06.582Z,97601.84
2023-01-13T03:52:38.326Z,97599.16
2023-01-13T03:55:10.696Z,97597.34
2023-01-13T03:57:46.869Z,97583.31
2023-01-13T04:00:16.697Z,97583.31
2023-01-13T04:02:51.575Z,97575.31
2023-01-13T04:05:21.452Z,97572.47
2023-01-13T04:07:56.275Z,97586.44
2023-01-13T04:10:29.332Z,97588.25
2023-01-13T04:13:02.717Z,97576.97
2023-01-13T04:15:34.126Z,97596.16
2023-01-13T04:18:13.365Z,97595.19
2023-01-13T04:20:44.311Z,97596.91
2023-01-13T04:23:13.655Z,97596.00
2023-01-13T04:25:42.085Z,97590.75
2023-01-13T04:28:11.537Z,97582.75
2023-01-13T04:30:40.181Z,97568.78
2023-01-13T04:33:08.350Z,97555.75
2023-01-13T04:35:37.577Z,97559.22
2023-01-13T04:38:10.000Z,97565.34
2023-01-13T04:40:38.148Z,97565.34
2023-01-13T04:43:06.805Z,97561.94
2023-01-13T04:45:35.232Z,97559.41
2023-01-13T04:48:03.462Z,97564.56
2023-01-13T04:50:31.861Z,97563.81
2023-01-13T04:53:01.240Z,97562.91
2023-01-13T04:55:31.882Z,97563.81
2023-01-13T04:58:04.417Z,97569.63
2023-01-13T05:00:32.763Z,97569.69
2023-01-13T05:03:01.226Z,97565.25
2023-01-13T05:05:30.799Z,97570.41
2023-01-13T05:07:59.280Z,97574.13
2023-01-13T05:10:27.964Z,97577.72
2023-01-13T05:13:15.094Z,97576.09
2023-01-13T05:16:06.846Z,97593.47
2023-01-13T05:18:35.173Z,97587.34
2023-01-13T05:21:03.215Z,97569.94
2023-01-13T05:23:48.838Z,97570.81
2023-01-13T05:26:16.875Z,97570.75
2023-01-13T05:28:46.367Z,97548.09
2023-01-13T05:31:15.092Z,97549.03
2023-01-13T05:33:43.258Z,97565.63
2023-01-13T05:36:11.463Z,97575.09
2023-01-13T05:38:39.547Z,97570.88
2023-01-13T05:41:25.332Z,97557.81
2023-01-13T05:43:54.758Z,97570.06
2023-01-13T05:46:22.992Z,97578.75
2023-01-13T05:48:51.118Z,97584.91
2023-01-13T05:51:19.782Z,97576.19
2023-01-13T05:53:47.873Z,97569.16
2023-01-13T05:56:18.037Z,97559.72
2023-01-13T05:58:46.404Z,97569.22
2023-01-13T06:01:15.999Z,97561.53
2023-01-13T06:03:44.192Z,97549.38
2023-01-13T06:06:12.265Z,97556.41
2023-01-13T06:08:40.390Z,97569.41
2023-01-13T06:11:08.741Z,97572.84
2023-01-13T06:13:37.133Z,97562.28
2023-01-13T06:16:05.619Z,97550.41
2023-01-13T06:18:35.152Z,97555.53
2023-01-13T06:21:03.208Z,97554.75
2023-01-13T06:23:35.074Z,97559.97
2023-01-13T06:26:09.645Z,97572.06
2023-01-13T06:28:37.770Z,97559.91
2023-01-13T06:31:08.572Z,97569.34
2023-01-13T06:33:40.921Z,97564.19
2023-01-13T06:36:13.602Z,97559.25
2023-01-13T06:38:44.475Z,97570.53
2023-01-13T06:41:12.611Z,97571.38
2023-01-13T06:43:40.359Z,97564.41
2023-01-13T06:46:08.530Z,97576.44
2023-01-13T06:48:38.078Z,97573.16
2023-01-13T06:51:06.652Z,97580.91
2023-01-13T06:53:34.727Z,97582.03
2023-01-13T06:56:02.805Z,97580.13
2023-01-13T06:58:30.878Z,97585.34
2023-01-13T07:01:01.763Z,97576.53
2023-01-13T07:03:29.992Z,97584.41
2023-01-13T07:06:01.910Z,97583.50
2023-01-13T07:08:30.047Z,97581.81
2023-01-13T07:10:58.136Z,97581.84
2023-01-13T07:13:43.482Z,97584.28
2023-01-13T07:16:11.637Z,97584.31
2023-01-13T07:18:39.998Z,97578.25
2023-01-13T07:21:13.277Z,97576.38
2023-01-13T07:23:42.956Z,97571.88
2023-01-13T07:26:12.049Z,97574.19
2023-01-13T07:28:40.998Z,97572.22
2023-01-13T07:31:15.862Z,97567.97
2023-01-13T07:33:44.306Z,97576.78
2023-01-13T07:36:15.017Z,97578.50
2023-01-13T07:38:44.680Z,97586.94
2023-01-13T07:41:31.667Z,97587.75
2023-01-13T07:44:00.397Z,97592.75
2023-01-13T07:46:28.647Z,97586.72
2023-01-13T07:48:56.749Z,97583.13
2023-01-13T07:51:26.391Z,97578.59
2023-01-13T07:53:54.989Z,97581.94
2023-01-13T07:56:23.165Z,97585.28
2023-01-13T07:58:53.004Z,97588.63
2023-01-13T08:01:21.581Z,97596.31
2023-01-13T08:03:49.776Z,97597.13
2023-01-13T08:06:17.987Z,97590.59
2023-01-13T08:08:47.495Z,97587.78
2023-01-13T08:11:15.707Z,97582.34
2023-01-13T08:13:43.844Z,97575.63
2023-01-13T08:16:14.854Z,97581.72
2023-01-13T08:18:43.542Z,97590.94
2023-01-13T08:21:13.846Z,97585.63
2023-01-13T08:23:42.974Z,97586.44
2023-01-13T08:26:14.835Z,97581.31
2023-01-13T08:28:43.100Z,97588.84
2023-01-13T08:31:13.508Z,97586.91
2023-01-13T08:33:42.373Z,97586.09
2023-01-13T08:36:12.479Z,97591.94
2023-01-13T08:38:42.163Z,97581.38
2023-01-13T08:41:13.534Z,97574.13
2023-01-13T08:43:41.828Z,97572.31
2023-01-13T08:46:10.249Z,97577.22
2023-01-13T08:48:38.677Z,97566.66
2023-01-13T08:51:08.952Z,97571.47
2023-01-13T08:53:37.440Z,97590.31
2023-01-13T08:56:08.586Z,97584.66
2023-01-13T08:58:38.107Z,97577.22
2023-01-13T09:01:06.975Z,97573.97
2023-01-13T09:03:35.179Z,97574.66
2023-01-13T09:06:03.294Z,97578.09
2023-01-13T09:08:31.495Z,97580.03
2023-01-13T09:10:59.841Z,97573.34
2023-01-13T09:13:26.940Z,97574.44
2023-01-13T09:15:57.118Z,97577.38
2023-01-13T09:18:25.382Z,97575.34
2023-01-13T09:20:53.745Z,97562.50
2023-01-13T09:23:21.950Z,97569.38
2023-01-13T09:25:50.695Z,97571.81
2023-01-13T09:28:18.894Z,97565.88
2023-01-13T09:30:47.183Z,97554.03
2023-01-13T09:33:34.190Z,97553.13
2023-01-13T09:36:02.469Z,97558.22
2023-01-13T09:38:30.633Z,97552.16
2023-01-13T09:40:58.891Z,97545.81
2023-01-13T09:43:52.569Z,97541.25
2023-01-13T09:46:43.065Z,97540.97
2023-01-13T09:49:20.885Z,97537.53
2023-01-13T09:51:56.561Z,97525.41
2023-01-13T09:54:32.516Z,97516.09
2023-01-13T09:57:01.214Z,97515.25
2023-01-13T09:59:36.553Z,97508.91
2023-01-13T10:02:23.011Z,97498.81
2023-01-13T10:05:07.548Z,97498.88
2023-01-13T10:07:39.649Z,97495.03
2023-01-13T10:10:14.848Z,97483.22
2023-01-13T10:13:03.729Z,97482.06
2023-01-13T10:15:31.871Z,97477.69
2023-01-13T10:18:08.494Z,97483.22
2023-01-13T10:20:50.366Z,97479.53
2023-01-13T10:23:47.507Z,97477.84
2023-01-13T10:26:34.351Z,97471.53
2023-01-13T10:29:02.768Z,97472.78
2023-01-13T10:31:31.043Z,97464.72
2023-01-13T10:34:00.538Z,97463.25
2023-01-13T10:36:30.081Z,97460.63
2023-01-13T10:39:09.863Z,97455.94
2023-01-13T10:41:38.050Z,97462.94
2023-01-13T10:44:15.855Z,97444.66
2023-01-13T10:46:53.949Z,97441.56
2023-01-13T10:49:31.114Z,97437.81
2023-01-13T10:52:02.037Z,97438.81
2023-01-13T10:54:31.231Z,97448.16
2023-01-13T10:57:19.555Z,97450.34
2023-01-13T10:59:48.313Z,97447.41
2023-01-13T11:02:26.966Z,97434.25
2023-01-13T11:05:03.960Z,97434.06
2023-01-13T11:07:36.290Z,97430.50
2023-01-13T11:10:17.678Z,97431.03
2023-01-13T11:12:54.202Z,97427.63
2023-01-13T11:15:26.320Z,97422.84
2023-01-13T11:18:01.513Z,97419.47
2023-01-13T11:20:34.101Z,97420.25
2023-01-13T11:23:10.721Z,97415.63
2023-01-13T11:25:43.534Z,97420.28
2023-01-13T11:28:36.479Z,97419.28
2023-01-13T11:31:12.351Z,97420.13
2023-01-13T11:33:45.197Z,97414.19
2023-01-13T11:36:20.223Z,97411.72
2023-01-13T11:38:52.542Z,97405.69
2023-01-13T11:41:35.645Z,97403.47
2023-01-13T11:44:14.745Z,97395.28
2023-01-13T11:46:43.279Z,97392.22
2023-01-13T11:49:23.625Z,97390.41
2023-01-13T11:51:58.415Z,97389.44
2023-01-13T11:54:47.132Z,97393.16
2023-01-13T11:57:40.544Z,97389.97
2023-01-13T12:00:42.068Z,97383.72
2023-01-13T12:03:27.721Z,97383.59
2023-01-13T12:06:19.371Z,97378.91
2023-01-13T12:09:22.384Z,97376.69
2023-01-13T12:12:23.593Z,97368.91
2023-01-13T12:15:25.869Z,97362.59
2023-01-13T12:18:09.665Z,97351.78
2023-01-13T12:20:51.777Z,97365.94
2023-01-13T12:23:28.185Z,97353.41
2023-01-13T12:26:01.560Z,97348.63
2023-01-13T12:28:43.051Z,97330.63
2023-01-13T12:31:12.543Z,97340.78
2023-01-13T12:33:55.896Z,97324.41
2023-01-13T12:36:29.512Z,97328.25
2023-01-13T12:38:59.771Z,97321.25
2023-01-13T12:41:38.886Z,97318.41
2023-01-13T12:44:18.444Z,97320.13
2023-01-13T12:46:53.167Z,97317.59
2023-01-13T12:49:26.819Z,97317.91
2023-01-13T12:52:15.436Z,97319.69
2023-01-13T12:55:05.236Z,97316.94
2023-01-13T12:57:36.154Z,97327.75
2023-01-13T13:00:18.828Z,97333.22
2023-01-13T13:03:34.797Z,97324.56
2023-01-13T13:06:18.657Z,97328.56
2023-01-13T13:09:03.622Z,97329.06
2023-01-13T13:12:01.071Z,97328.94
2023-01-13T13:15:03.909Z,97337.03
2023-01-13T13:17:44.472Z,97338.09
2023-01-13T13:20:53.875Z,97331.63
2023-01-13T13:23:49.001Z,97339.97
2023-01-13T13:26:25.000Z,97339.97
2023-01-13T13:29:09.819Z,97336.50
2023-01-13T13:32:00.114Z,97353.31
2023-01-13T13:34:40.525Z,97350.22
2023-01-13T13:38:06.792Z,97355.44
2023-01-13T13:40:58.767Z,97372.50
2023-01-13T13:43:45.660Z,97373.66
2023-01-13T13:46:44.260Z,97375.53
2023-01-13T13:49:13.296Z,97377.91
2023-01-13T13:51:49.355Z,97378.47
2023-01-13T13:54:21.730Z,97381.03
2023-01-13T13:56:51.660Z,97381.19
2023-01-13T13:59:22.547Z,97373.81
2023-01-13T14:02:00.934Z,97375.88
2023-01-13T14:04:31.575Z,97371.53
2023-01-13T14:07:04.531Z,97360.19
2023-01-13T14:09:42.889Z,97367.94
2023-01-13T14:12:18.796Z,97369.88
2023-01-13T14:14:48.361Z,97373.94
2023-01-13T14:17:21.149Z,97377.38
2023-01-13T14:19:54.753Z,97377.13
2023-01-13T14:22:24.467Z,97366.16
2023-01-13T14:24:55.738Z,97358.75
2023-01-13T14:27:26.440Z,97374.78
2023-01-13T14:29:55.586Z,97363.72
2023-01-13T14:32:31.193Z,97363.50
2023-01-13T14:34:59.366Z,97369.28
2023-01-13T14:37:35.158Z,97371.63
2023-01-13T14:40:04.059Z,97373.78
2023-01-13T14:42:35.582Z,97376.50
2023-01-13T14:45:04.360Z,97381.28
2023-01-13T14:47:34.779Z,97385.72
2023-01-13T14:50:08.493Z,97389.94
2023-01-13T14:52:48.045Z,97371.59
2023-01-13T14:55:30.091Z,97365.44
2023-01-13T14:58:28.310Z,97366.38
2023-01-13T15:01:30.293Z,97372.16
2023-01-13T15:04:19.335Z,97384.50
2023-01-13T15:06:48.838Z,97397.41
2023-01-13T15:09:26.047Z,97392.38
2023-01-13T15:11:56.376Z,97389.22
2023-01-13T15:14:31.386Z,97388.78
2023-01-13T15:16:59.706Z,97379.00
2023-01-13T15:19:27.907Z,97400.97
2023-01-13T15:21:56.101Z,97399.66
2023-01-13T15:24:25.660Z,97401.16
2023-01-13T15:26:53.899Z,97404.66
2023-01-13T15:29:24.276Z,97401.31
2023-01-13T15:31:52.678Z,97396.22
2023-01-13T15:34:20.787Z,97402.66
2023-01-13T15:36:48.969Z,97390.88
2023-01-13T15:39:17.085Z,97406.69
2023-01-13T15:42:04.091Z,97408.59
2023-01-13T15:44:49.797Z,97406.81
2023-01-13T15:47:17.914Z,97400.00
2023-01-13T15:49:47.314Z,97393.28
2023-01-13T15:52:22.118Z,97402.03
2023-01-13T15:54:50.454Z,97407.44
2023-01-13T15:57:24.273Z,97400.59
2023-01-13T15:59:55.898Z,97405.88
2023-01-13T16:02:27.483Z,97408.75
2023-01-13T16:04:55.763Z,97407.09
2023-01-13T16:07:25.630Z,97404.03
2023-01-13T16:09:54.390Z,97398.44
2023-01-13T16:12:23.964Z,97395.94
2023-01-13T16:14:52.114Z,97411.53
2023-01-13T16:17:22.124Z,97413.97
2023-01-13T16:19:53.507Z,97421.53
2023-01-13T16:22:25.089Z,97422.59
2023-01-13T16:24:53.694Z,97435.91
2023-01-13T16:27:25.338Z,97451.13
2023-01-13T16:29:53.808Z,97448.84
2023-01-13T16:32:22.089Z,97453.38
2023-01-13T16:34:50.494Z,97460.41
2023-01-13T16:37:23.873Z,97452.63
2023-01-13T16:39:53.769Z,97459.47
2023-01-13T16:42:26.930Z,97458.56
2023-01-13T16:44:55.459Z,97457.31
2023-01-13T16:47:24.431Z,97462.75
2023-01-13T16:49:52.695Z,97462.97
2023-01-13T16:52:21.069Z,97464.06
2023-01-13T16:54:49.253Z,97467.00
2023-01-13T16:57:17.438Z,97469.78
2023-01-13T16:59:47.376Z,97468.38
2023-01-13T17:02:20.221Z,97468.56
2023-01-13T17:04:48.990Z,97468.72
2023-01-13T17:07:18.389Z,97472.16
2023-01-13T17:09:46.594Z,97484.47
2023-01-13T17:12:15.147Z,97496.97
2023-01-13T17:14:44.656Z,97487.88
2023-01-13T17:17:23.657Z,97488.56
2023-01-13T17:19:52.593Z,97485.94
2023-01-13T17:22:21.623Z,97481.72
2023-01-13T17:24:50.452Z,97487.97
2023-01-13T17:27:18.820Z,97485.41
2023-01-13T17:29:47.613Z,97485.41
2023-01-13T17:32:19.595Z,97493.59
2023-01-13T17:34:48.911Z,97503.31
2023-01-13T17:37:18.339Z,97500.72
2023-01-13T17:39:48.468Z,97499.97
2023-01-13T17:42:17.005Z,97505.34
2023-01-13T17:44:47.000Z,97503.00
2023-01-13T17:47:15.508Z,97506.50
2023-01-13T17:49:45.136Z,97505.94
2023-01-13T17:52:13.846Z,97503.44
2023-01-13T17:54:43.229Z,97505.34
2023-01-13T17:57:11.824Z,97512.06
2023-01-13T17:59:41.568Z,97538.50
2023-01-13T18:02:13.355Z,97541.25
2023-01-13T18:04:42.082Z,97545.84
2023-01-13T18:07:14.770Z,97551.19
2023-01-13T18:09:43.137Z,97550.53
2023-01-13T18:12:12.695Z,97551.28
2023-01-13T18:14:41.429Z,97551.84
2023-01-13T18:17:09.991Z,97549.16
2023-01-13T18:19:56.624Z,97550.22
2023-01-13T18:22:49.881Z,97552.00
2023-01-13T18:25:35.891Z,97560.03
2023-01-13T18:28:05.507Z,97564.34
2023-01-13T18:30:35.202Z,97570.75
2023-01-13T18:33:03.587Z,97570.03
2023-01-13T18:35:32.565Z,97571.88
2023-01-13T18:38:03.390Z,97584.13
2023-01-13T18:40:32.650Z,97584.06
2023-01-13T18:43:00.339Z,97586.66
2023-01-13T18:45:31.189Z,97585.78
2023-01-13T18:48:01.670Z,97580.53
2023-01-13T18:50:30.943Z,97574.53
2023-01-13T18:52:59.813Z,97580.81
2023-01-13T18:55:30.460Z,97578.38
2023-01-13T18:57:59.872Z,97570.97
2023-01-13T19:00:32.444Z,97567.53
2023-01-13T19:05:35.779Z,97577.78
2023-01-13T19:08:04.734Z,97586.97
2023-01-13T19:10:36.766Z,97598.50
2023-01-13T19:13:05.432Z,97611.69
2023-01-13T19:15:34.572Z,97602.13
2023-01-13T19:18:02.919Z,97595.13
2023-01-13T19:20:31.970Z,97580.06
2023-01-13T19:23:00.914Z,97574.50
2023-01-13T19:25:29.627Z,97596.91
2023-01-13T19:28:00.136Z,97626.06
2023-01-13T19:30:29.243Z,97624.28
2023-01-13T19:32:57.743Z,97621.47
2023-01-13T19:35:26.151Z,97638.72
2023-01-13T19:37:55.065Z,97643.94
2023-01-13T19:40:26.085Z,97658.56
2023-01-13T19:43:12.073Z,97674.25
2023-01-13T19:45:42.540Z,97682.03
2023-01-13T19:48:10.972Z,97677.56
2023-01-13T19:50:40.749Z,97686.25
2023-01-13T19:53:16.961Z,97701.13
2023-01-13T19:55:48.767Z,97690.63
2023-01-13T19:58:18.939Z,97695.78
2023-01-13T20:00:49.816Z,97699.06
2023-01-13T20:03:20.915Z,97691.91
2023-01-13T20:05:50.601Z,97702.34
2023-01-13T20:08:20.771Z,97723.41
2023-01-13T20:10:51.179Z,97723.41
2023-01-13T20:13:20.183Z,97725.09
2023-01-13T20:15:50.467Z,97721.34
2023-01-13T20:18:19.981Z,97724.03
2023-01-13T20:20:48.875Z,97728.66
2023-01-13T20:23:17.539Z,97721.75
2023-01-13T20:25:46.514Z,97729.03
2023-01-13T20:28:16.903Z,97729.94
2023-01-13T20:30:45.807Z,97729.84
2023-01-13T20:33:26.558Z,97728.75
2023-01-13T20:35:59.529Z,97732.28
2023-01-13T20:38:28.757Z,97739.22
2023-01-13T20:41:00.897Z,97733.91
2023-01-13T20:43:29.455Z,97736.41
2023-01-13T20:45:58.279Z,97739.03
2023-01-13T20:48:28.784Z,97721.47
2023-01-13T20:51:00.526Z,97728.53
2023-01-13T20:53:29.459Z,97732.06
2023-01-13T20:55:58.836Z,97733.78
2023-01-13T20:58:27.757Z,97722.59
2023-01-13T21:00:59.725Z,97729.72
2023-01-13T21:03:29.990Z,97733.44
2023-01-13T21:05:59.900Z,97734.50
2023-01-13T21:08:29.139Z,97730.22
2023-01-13T21:11:04.233Z,97732.66
2023-01-13T21:13:51.103Z,97738.31
2023-01-13T21:16:19.622Z,97739.22
2023-01-13T21:19:07.263Z,97743.78
2023-01-13T21:21:35.877Z,97741.22
2023-01-13T21:24:04.757Z,97731.94
2023-01-13T21:26:34.033Z,97737.13
2023-01-13T21:29:04.241Z,97744.19
2023-01-13T21:31:32.591Z,97753.78
2023-01-13T21:34:02.398Z,97759.84
2023-01-13T21:36:31.257Z,97765.09
2023-01-13T21:39:00.755Z,97765.97
2023-01-13T21:41:46.051Z,97758.53
2023-01-13T21:44:34.149Z,97755.97
2023-01-13T21:47:19.969Z,97758.53
2023-01-13T21:49:49.600Z,97754.28
2023-01-13T21:52:17.897Z,97756.06
2023-01-13T21:55:03.682Z,97756.28
2023-01-13T21:57:32.219Z,97761.69
2023-01-13T22:00:00.434Z,97769.63
2023-01-13T22:02:32.972Z,97772.97
2023-01-13T22:05:03.911Z,97781.53
2023-01-13T22:07:33.644Z,97781.34
2023-01-13T22:10:02.032Z,97776.03
2023-01-13T22:12:30.392Z,97789.19
2023-01-13T22:14:58.594Z,97791.09
2023-01-13T22:17:28.579Z,97799.09
2023-01-13T22:19:57.550Z,97799.28
2023-01-13T22:22:27.727Z,97792.34
2023-01-13T22:24:56.183Z,97792.53
2023-01-13T22:27:25.968Z,97803.22
2023-01-13T22:29:54.485Z,97811.41
2023-01-13T22:32:22.634Z,97809.19
2023-01-13T22:34:50.807Z,97812.91
2023-01-13T22:37:18.972Z,97823.69
2023-01-13T22:39:48.546Z,97811.56
2023-01-13T22:42:16.713Z,97824.78
2023-01-13T22:44:44.840Z,97813.59
2023-01-13T22:47:12.924Z,97819.59
2023-01-13T22:49:42.148Z,97817.88
2023-01-13T22:52:10.372Z,97814.41
2023-01-13T22:54:38.529Z,97812.72
2023-01-13T22:57:07.979Z,97831.97
2023-01-13T22:59:36.290Z,97839.88
2023-01-13T23:02:04.382Z,97841.50
2023-01-13T23:04:32.519Z,97845.84
2023-01-13T23:07:01.135Z,97839.59
2023-01-13T23:09:30.010Z,97841.22
2023-01-13T23:11:59.333Z,97837.66
2023-01-13T23:14:28.956Z,97832.56
2023-01-13T23:16:57.135Z,97828.22
2023-01-13T23:19:25.302Z,97832.63
2023-01-13T23:21:53.562Z,97830.25
2023-01-13T23:24:25.843Z,97842.63
2023-01-13T23:26:54.149Z,97839.28
2023-01-13T23:29:22.258Z,97845.47
2023-01-13T23:31:51.819Z,97855.34
2023-01-13T23:34:19.888Z,97857.19
2023-01-13T23:36:48.040Z,97862.69
2023-01-13T23:39:16.215Z,97863.84
2023-01-13T23:41:44.286Z,97857.94
2023-01-13T23:44:12.402Z,97865.94
2023-01-13T23:46:40.598Z,97866.19
2023-01-13T23:49:10.117Z,97855.22
2023-01-13T23:51:38.308Z,97871.97
2023-01-13T23:54:06.524Z,97866.84
2023-01-13T23:56:39.275Z,97872.06
2023-01-13T23:59:08.314Z,97872.28
